This is the latest recevied weather packets stored in our database for station/object VU3OPZ-13. If no packets are shown the sender has not sent any weather packets the latest 10 day(s).
| Time | Temp. | Humidity | Pressure | Rain* | Wind** | Luminosity | Snow |
|---|---|---|---|---|---|---|---|
| 1788165578 | 85° F | 51% | 756.1 mmHg | 0 in | - | - | - |
| 1788163774 | 84° F | 55% | 756.8 mmHg | 0 in | - | - | - |
| 1788161969 | 84° F | 53% | 756.8 mmHg | 0 in | - | - | - |
| 1788160165 | 84° F | 56% | 757.6 mmHg | 0 in | - | - | - |
| 1788158360 | 83° F | 55% | 757.6 mmHg | 0 in | - | - | - |
| 1788156556 | 83° F | 58% | 759.1 mmHg | 0 in | - | - | - |
| 1788154750 | 83° F | 57% | 758.3 mmHg | 0 in | - | - | - |
| 1788152946 | 82° F | 60% | 759.1 mmHg | 0 in | - | - | - |
| 1788151141 | 82° F | 59% | 759.1 mmHg | 0 in | - | - | - |
| 1788149336 | 80° F | 65% | 759.1 mmHg | 0 in | - | - | - |
| 1788147532 | 80° F | 64% | 759.1 mmHg | 0 in | - | - | - |
| 1788145728 | 77° F | 72% | 759.1 mmHg | 0 in | - | - | - |
| 1788143923 | 77° F | 71% | 759.1 mmHg | 0 in | - | - | - |
| 1788142119 | 73° F | 83% | 759.1 mmHg | 0 in | - | - | - |
| 1788140315 | 73° F | 83% | 759.1 mmHg | 0 in | - | - | - |
| 1788138510 | 69° F | 93% | 758.3 mmHg | 0 in | - | - | - |
| 1788136706 | 69° F | 93% | 758.3 mmHg | 0 in | - | - | - |
| 1788134902 | 70° F | 90% | 757.6 mmHg | 0 in | - | - | - |
| 1788133097 | 70° F | 90% | 757.6 mmHg | 0 in | - | - | - |
| 1788131293 | 69° F | 92% | 757.6 mmHg | 0 in | - | - | - |
| 1788129489 | 69° F | 92% | 757.6 mmHg | 0 in | - | - | - |
| 1788127684 | 69° F | 93% | 757.6 mmHg | 0 in | - | - | - |
| 1788125880 | 69° F | 93% | 757.6 mmHg | 0 in | - | - | - |
| 1788124076 | 70° F | 91% | 758.3 mmHg | 0 in | - | - | - |
| 1788122271 | 70° F | 91% | 758.3 mmHg | 0 in | - | - | - |
* Rain latest hour (hover to see other rain measurements)
** Current wind speed in m/s (hover to see current wind gust speed)